createdAt,value
2024-01-14T00:00:56.413Z,15.17
2024-01-14T00:03:24.556Z,14.83
2024-01-14T00:05:52.312Z,16.23
2024-01-14T00:08:21.271Z,14.83
2024-01-14T00:10:48.984Z,15.33
2024-01-14T00:13:16.488Z,13.57
2024-01-14T00:15:44.035Z,15.40
2024-01-14T00:18:12.277Z,15.43
2024-01-14T00:20:40.094Z,15.03
2024-01-14T00:23:07.705Z,15.40
2024-01-14T00:25:36.499Z,15.17
2024-01-14T00:28:04.933Z,14.73
2024-01-14T00:30:32.576Z,14.23
2024-01-14T00:33:00.730Z,14.50
2024-01-14T00:35:28.242Z,14.90
2024-01-14T00:37:55.918Z,14.93
2024-01-14T00:40:23.769Z,14.53
2024-01-14T00:42:52.590Z,13.90
2024-01-14T00:45:20.248Z,14.13
2024-01-14T00:47:47.840Z,15.43
2024-01-14T00:50:15.533Z,15.20
2024-01-14T00:52:43.079Z,14.47
2024-01-14T00:55:11.652Z,15.40
2024-01-14T00:57:39.291Z,15.40
2024-01-14T01:00:10.700Z,15.17
2024-01-14T01:02:38.294Z,15.10
2024-01-14T01:05:06.473Z,15.17
2024-01-14T01:07:33.961Z,15.13
2024-01-14T01:10:01.503Z,15.40
2024-01-14T01:12:29.036Z,14.50
2024-01-14T01:14:56.609Z,14.83
2024-01-14T01:17:25.676Z,14.80
2024-01-14T01:19:53.190Z,14.33
2024-01-14T01:22:20.682Z,14.17
2024-01-14T01:24:48.134Z,15.07
2024-01-14T01:27:15.695Z,13.67
2024-01-14T01:29:43.847Z,14.30
2024-01-14T01:32:11.727Z,14.27
2024-01-14T01:34:40.975Z,15.60
2024-01-14T01:37:08.625Z,14.13
2024-01-14T01:39:36.101Z,14.83
2024-01-14T01:42:03.931Z,14.77
2024-01-14T01:44:31.458Z,14.50
2024-01-14T01:46:59.273Z,14.60
2024-01-14T01:49:27.589Z,14.70
2024-01-14T01:51:58.317Z,14.83
2024-01-14T01:54:28.891Z,14.37
2024-01-14T01:56:57.026Z,14.67
2024-01-14T01:59:25.835Z,13.77
2024-01-14T02:01:53.860Z,15.53
2024-01-14T02:04:21.677Z,14.87
2024-01-14T02:06:49.751Z,14.83
2024-01-14T02:09:18.604Z,13.87
2024-01-14T02:11:46.228Z,14.73
2024-01-14T02:14:13.844Z,13.87
2024-01-14T02:16:41.522Z,14.87
2024-01-14T02:19:09.062Z,14.13
2024-01-14T02:21:42.250Z,14.47
2024-01-14T02:24:24.842Z,14.97
2024-01-14T02:26:52.848Z,13.80
2024-01-14T02:29:21.262Z,14.43
2024-01-14T02:31:49.104Z,13.57
2024-01-14T02:34:16.966Z,14.13
2024-01-14T02:36:44.556Z,14.10
2024-01-14T02:39:12.146Z,13.93
2024-01-14T02:41:40.999Z,14.47
2024-01-14T02:44:08.492Z,14.30
2024-01-14T02:46:36.947Z,14.77
2024-01-14T02:49:04.665Z,14.47
2024-01-14T02:51:32.412Z,14.93
2024-01-14T02:54:02.129Z,14.43
2024-01-14T02:56:30.034Z,14.40
2024-01-14T02:58:59.125Z,15.10
2024-01-14T03:01:26.616Z,14.10
2024-01-14T03:03:54.308Z,14.93
2024-01-14T03:06:22.018Z,14.17
2024-01-14T03:08:49.982Z,14.97
2024-01-14T03:11:17.557Z,14.50
2024-01-14T03:13:45.204Z,15.27
2024-01-14T03:16:14.026Z,14.53
2024-01-14T03:18:41.782Z,14.50
2024-01-14T03:21:10.151Z,15.00
2024-01-14T03:23:37.691Z,14.13
2024-01-14T03:26:05.490Z,14.83
2024-01-14T03:28:33.042Z,14.50
2024-01-14T03:31:00.587Z,14.57
2024-01-14T03:33:29.587Z,14.97
2024-01-14T03:35:57.167Z,14.03
2024-01-14T03:38:24.690Z,13.60
2024-01-14T03:40:52.231Z,14.50
2024-01-14T03:43:19.692Z,14.80
2024-01-14T03:45:47.202Z,15.00
2024-01-14T03:48:14.903Z,13.97
2024-01-14T03:50:43.840Z,14.37
2024-01-14T03:53:11.333Z,15.07
2024-01-14T03:55:38.806Z,14.30
2024-01-14T03:58:06.931Z,14.40
2024-01-14T04:00:34.654Z,13.87
2024-01-14T04:03:02.307Z,14.90
2024-01-14T04:05:29.919Z,15.40
2024-01-14T04:07:58.824Z,14.67
2024-01-14T04:10:26.319Z,14.17
2024-01-14T04:12:53.812Z,14.47
2024-01-14T04:15:22.930Z,13.60
2024-01-14T04:17:50.698Z,14.30
2024-01-14T04:20:18.382Z,14.77
2024-01-14T04:22:45.866Z,14.40
2024-01-14T04:25:14.754Z,13.10
2024-01-14T04:27:42.481Z,14.77
2024-01-14T04:30:11.087Z,13.80
2024-01-14T04:32:38.743Z,14.40
2024-01-14T04:35:06.656Z,14.90
2024-01-14T04:37:34.126Z,14.33
2024-01-14T04:40:01.646Z,14.90
2024-01-14T04:42:30.561Z,15.23
2024-01-14T04:44:58.118Z,13.00
2024-01-14T04:47:25.685Z,14.40
2024-01-14T04:49:53.294Z,13.83
2024-01-14T04:52:20.870Z,12.77
2024-01-14T04:54:48.377Z,13.87
2024-01-14T04:57:16.648Z,13.97
2024-01-14T04:59:45.764Z,13.97
2024-01-14T05:02:13.299Z,13.43
2024-01-14T05:04:40.834Z,13.17
2024-01-14T05:07:08.334Z,13.40
2024-01-14T05:09:35.903Z,12.67
2024-01-14T05:12:03.506Z,13.83
2024-01-14T05:14:31.001Z,13.27
2024-01-14T05:16:59.860Z,12.70
2024-01-14T05:19:27.484Z,13.40
2024-01-14T05:21:55.091Z,14.40
2024-01-14T05:24:22.612Z,13.57
2024-01-14T05:26:50.320Z,13.93
2024-01-14T05:29:17.868Z,14.10
2024-01-14T05:31:45.348Z,13.40
2024-01-14T05:34:14.480Z,13.43
2024-01-14T05:36:42.085Z,13.20
2024-01-14T05:39:09.594Z,12.77
2024-01-14T05:41:37.103Z,13.03
2024-01-14T05:44:05.189Z,13.63
2024-01-14T05:46:32.665Z,14.07
2024-01-14T05:49:00.303Z,13.60
2024-01-14T05:51:29.273Z,13.50
2024-01-14T05:53:57.438Z,13.30
2024-01-14T05:56:28.417Z,13.97
2024-01-14T05:58:56.035Z,12.90
2024-01-14T06:01:23.633Z,13.10
2024-01-14T06:03:51.112Z,13.63
2024-01-14T06:06:18.646Z,12.90
2024-01-14T06:08:47.707Z,13.30
2024-01-14T06:11:15.182Z,12.23
2024-01-14T06:13:42.955Z,12.60
2024-01-14T06:16:10.992Z,12.80
2024-01-14T06:18:38.672Z,13.20
2024-01-14T06:21:06.752Z,12.77
2024-01-14T06:23:34.594Z,13.43
2024-01-14T06:26:03.570Z,12.90
2024-01-14T06:28:31.129Z,13.80
2024-01-14T06:30:58.825Z,13.00
2024-01-14T06:33:26.657Z,12.93
2024-01-14T06:35:54.316Z,13.43
2024-01-14T06:38:21.914Z,13.03
2024-01-14T06:40:59.580Z,14.17
2024-01-14T06:43:36.101Z,14.07
2024-01-14T06:46:03.768Z,15.10
2024-01-14T06:48:31.336Z,13.67
2024-01-14T06:50:59.258Z,13.20
2024-01-14T06:53:26.771Z,13.73
2024-01-14T06:55:54.277Z,14.13
2024-01-14T06:58:21.859Z,13.67
2024-01-14T07:00:51.761Z,12.70
2024-01-14T07:03:19.641Z,13.80
2024-01-14T07:05:47.364Z,13.17
2024-01-14T07:08:15.032Z,13.90
2024-01-14T07:10:42.611Z,13.03
2024-01-14T07:13:10.369Z,14.20
2024-01-14T07:15:39.634Z,13.47
2024-01-14T07:18:11.321Z,13.23
2024-01-14T07:20:42.141Z,13.53
2024-01-14T07:23:41.279Z,13.63
2024-01-14T07:25:57.388Z,13.27
2024-01-14T07:28:24.830Z,13.43
2024-01-14T07:30:52.387Z,13.50
2024-01-14T07:33:21.300Z,13.27
2024-01-14T07:35:48.981Z,13.47
2024-01-14T07:38:16.463Z,13.63
2024-01-14T07:40:44.161Z,13.80
2024-01-14T07:43:11.711Z,13.13
2024-01-14T07:45:39.228Z,13.53
2024-01-14T07:48:07.327Z,13.57
2024-01-14T07:50:36.285Z,14.13
2024-01-14T07:53:03.875Z,13.33
2024-01-14T07:55:31.597Z,14.47
2024-01-14T07:57:59.170Z,15.10
2024-01-14T08:00:26.816Z,15.40
2024-01-14T08:02:54.448Z,15.30
2024-01-14T08:05:22.047Z,15.93
2024-01-14T08:07:51.373Z,16.17
2024-01-14T08:10:18.866Z,17.57
2024-01-14T08:12:46.428Z,16.23
2024-01-14T08:15:14.108Z,17.37
2024-01-14T08:17:41.690Z,16.60
2024-01-14T08:20:12.225Z,17.73
2024-01-14T08:22:40.734Z,17.63
2024-01-14T08:25:10.532Z,19.13
2024-01-14T08:27:38.354Z,19.20
2024-01-14T08:30:07.674Z,19.97
2024-01-14T08:32:35.417Z,19.50
2024-01-14T08:35:03.002Z,18.70
2024-01-14T08:37:30.998Z,19.50
2024-01-14T08:39:58.648Z,18.50
2024-01-14T08:42:27.530Z,18.30
2024-01-14T08:44:54.102Z,18.87
2024-01-14T08:47:21.701Z,19.93
2024-01-14T08:49:49.752Z,19.97
2024-01-14T08:52:17.291Z,19.27
2024-01-14T08:54:44.822Z,19.83
2024-01-14T08:57:13.741Z,18.47
2024-01-14T08:59:43.238Z,20.10
2024-01-14T09:02:10.801Z,18.70
2024-01-14T09:04:38.379Z,18.53
2024-01-14T09:07:06.151Z,19.30
2024-01-14T09:09:33.705Z,20.63
2024-01-14T09:12:01.240Z,17.97
2024-01-14T09:14:29.432Z,18.53
2024-01-14T09:16:58.278Z,18.53
2024-01-14T09:19:28.126Z,17.97
2024-01-14T09:21:57.285Z,19.07
2024-01-14T09:24:24.851Z,18.30
2024-01-14T09:26:52.664Z,17.63
2024-01-14T09:29:20.205Z,18.50
2024-01-14T09:31:47.764Z,18.50
2024-01-14T09:34:16.724Z,19.73
2024-01-14T09:36:44.640Z,18.40
2024-01-14T09:39:12.596Z,18.60
2024-01-14T09:41:46.517Z,18.90
2024-01-14T09:44:16.746Z,17.60
2024-01-14T09:46:44.778Z,17.73
2024-01-14T09:49:16.733Z,19.17
2024-01-14T09:51:49.556Z,19.87
2024-01-14T09:54:17.719Z,19.73
2024-01-14T09:56:47.139Z,18.73
2024-01-14T09:59:18.995Z,19.80
2024-01-14T10:01:47.427Z,19.27
2024-01-14T10:04:18.669Z,19.40
2024-01-14T10:06:48.823Z,19.80
2024-01-14T10:09:18.002Z,19.40
2024-01-14T10:11:47.665Z,20.73
2024-01-14T10:14:15.139Z,20.97
2024-01-14T10:16:52.319Z,20.97
2024-01-14T10:19:22.940Z,19.77
2024-01-14T10:22:13.501Z,19.67
2024-01-14T10:24:42.235Z,20.43
2024-01-14T10:27:11.753Z,20.23
2024-01-14T10:29:39.294Z,20.73
2024-01-14T10:32:07.091Z,19.60
2024-01-14T10:34:34.769Z,19.57
2024-01-14T10:37:03.823Z,18.50
2024-01-14T10:39:32.088Z,18.40
2024-01-14T10:41:59.859Z,18.30
2024-01-14T10:44:27.929Z,17.67
2024-01-14T10:46:57.796Z,18.27
2024-01-14T10:49:27.670Z,18.10
2024-01-14T10:52:02.567Z,17.73
2024-01-14T10:54:36.805Z,16.67
2024-01-14T10:57:13.587Z,17.57
2024-01-14T10:59:45.083Z,16.07
2024-01-14T11:02:18.675Z,15.80
2024-01-14T11:04:47.097Z,16.03
2024-01-14T11:07:14.876Z,16.07
2024-01-14T11:09:44.679Z,15.40
2024-01-14T11:12:18.168Z,14.30
2024-01-14T11:14:52.977Z,14.67
2024-01-14T11:17:32.469Z,14.37
2024-01-14T11:20:01.893Z,15.07
2024-01-14T11:22:34.798Z,14.60
2024-01-14T11:25:15.009Z,14.40
2024-01-14T11:27:42.646Z,14.93
2024-01-14T11:30:12.561Z,13.60
2024-01-14T11:32:40.474Z,13.13
2024-01-14T11:35:11.024Z,14.27
2024-01-14T11:37:38.780Z,13.47
2024-01-14T11:40:34.827Z,11.70
2024-01-14T11:43:08.403Z,12.27
2024-01-14T11:45:40.312Z,12.03
2024-01-14T11:48:10.303Z,12.30
2024-01-14T11:50:38.706Z,11.97
2024-01-14T11:53:08.476Z,13.03
2024-01-14T11:55:38.836Z,11.83
2024-01-14T11:58:11.605Z,11.33
2024-01-14T12:00:41.109Z,11.30
2024-01-14T12:03:10.879Z,11.53
2024-01-14T12:05:40.760Z,11.70
2024-01-14T12:08:09.180Z,11.30
2024-01-14T12:10:38.504Z,11.43
2024-01-14T12:13:10.012Z,11.20
2024-01-14T12:15:39.279Z,11.13
2024-01-14T12:18:08.317Z,10.77
2024-01-14T12:20:36.434Z,11.33
2024-01-14T12:23:06.825Z,11.07
2024-01-14T12:25:35.526Z,11.10
2024-01-14T12:28:05.096Z,11.00
2024-01-14T12:30:37.632Z,11.57
2024-01-14T12:33:07.116Z,11.57
2024-01-14T12:35:36.127Z,11.30
2024-01-14T12:38:04.910Z,10.90
2024-01-14T12:40:33.935Z,11.33
2024-01-14T12:43:01.893Z,11.80
2024-01-14T12:45:30.883Z,11.00
2024-01-14T12:48:03.241Z,11.87
2024-01-14T12:50:34.684Z,11.87
2024-01-14T12:53:04.726Z,11.80
2024-01-14T12:55:32.435Z,11.67
2024-01-14T12:58:01.974Z,12.10
2024-01-14T13:00:32.238Z,12.07
2024-01-14T13:03:00.217Z,12.23
2024-01-14T13:05:28.040Z,11.10
2024-01-14T13:07:55.596Z,12.43
2024-01-14T13:10:23.288Z,12.10
2024-01-14T13:12:50.956Z,13.20
2024-01-14T13:15:18.619Z,11.60
2024-01-14T13:17:47.632Z,12.67
2024-01-14T13:20:15.297Z,13.30
2024-01-14T13:22:43.187Z,14.17
2024-01-14T13:25:11.033Z,14.10
2024-01-14T13:27:39.001Z,13.63
2024-01-14T13:30:09.732Z,14.70
2024-01-14T13:32:39.004Z,13.30
2024-01-14T13:35:10.218Z,14.57
2024-01-14T13:37:38.829Z,13.90
2024-01-14T13:40:07.663Z,12.70
2024-01-14T13:42:37.973Z,12.60
2024-01-14T13:45:08.547Z,13.63
2024-01-14T13:47:36.603Z,12.67
2024-01-14T13:50:04.591Z,13.63
2024-01-14T13:52:33.740Z,13.30
2024-01-14T13:55:01.376Z,12.40
2024-01-14T13:57:29.029Z,12.60
2024-01-14T13:59:56.547Z,13.90
2024-01-14T14:02:24.216Z,13.53
2024-01-14T14:05:02.970Z,13.30
2024-01-14T14:07:37.476Z,13.73
2024-01-14T14:10:06.136Z,14.00
2024-01-14T14:12:33.837Z,15.07
2024-01-14T14:15:01.459Z,14.43
2024-01-14T14:17:29.327Z,15.50
2024-01-14T14:19:57.739Z,14.30
2024-01-14T14:22:25.352Z,14.33
2024-01-14T14:24:54.274Z,14.60
2024-01-14T14:27:21.802Z,13.10
2024-01-14T14:29:49.367Z,13.20
2024-01-14T14:32:17.073Z,13.37
2024-01-14T14:34:44.948Z,13.47
2024-01-14T14:37:12.591Z,14.00
2024-01-14T14:39:40.132Z,14.27
2024-01-14T14:42:09.120Z,13.57
2024-01-14T14:44:37.071Z,14.00
2024-01-14T14:47:05.682Z,14.33
2024-01-14T14:49:33.295Z,14.00
2024-01-14T14:52:00.934Z,14.27
2024-01-14T14:54:30.782Z,14.37
2024-01-14T14:56:58.391Z,14.43
2024-01-14T14:59:27.208Z,14.83
2024-01-14T15:01:55.275Z,15.17
2024-01-14T15:04:22.931Z,15.87
2024-01-14T15:06:51.664Z,15.17
2024-01-14T15:09:19.730Z,16.07
2024-01-14T15:11:47.668Z,14.70
2024-01-14T15:14:15.248Z,16.40
2024-01-14T15:16:44.495Z,16.97
2024-01-14T15:19:12.271Z,16.90
2024-01-14T15:21:40.212Z,18.17
2024-01-14T15:24:08.586Z,17.53
2024-01-14T15:26:36.406Z,17.23
2024-01-14T15:29:04.574Z,17.47
2024-01-14T15:31:32.378Z,17.83
2024-01-14T15:34:01.661Z,18.30
2024-01-14T15:36:29.853Z,16.90
2024-01-14T15:38:57.576Z,17.97
2024-01-14T15:41:26.073Z,16.87
2024-01-14T15:43:53.561Z,18.23
2024-01-14T15:46:21.190Z,18.23
2024-01-14T15:48:48.841Z,17.90
2024-01-14T15:51:18.606Z,18.47
2024-01-14T15:53:46.147Z,18.40
2024-01-14T15:56:14.725Z,18.83
2024-01-14T15:58:42.969Z,18.00
2024-01-14T16:01:13.721Z,18.07
2024-01-14T16:03:45.448Z,18.53
2024-01-14T16:06:14.844Z,19.43
2024-01-14T16:08:45.898Z,20.00
2024-01-14T16:11:13.894Z,19.63
2024-01-14T16:13:41.720Z,19.97
2024-01-14T16:16:09.629Z,19.33
2024-01-14T16:18:37.562Z,19.70
2024-01-14T16:21:07.990Z,19.93
2024-01-14T16:23:38.040Z,20.77
2024-01-14T16:26:08.641Z,19.83
2024-01-14T16:28:36.538Z,20.30
2024-01-14T16:31:11.454Z,19.37
2024-01-14T16:33:43.739Z,20.70
2024-01-14T16:36:13.854Z,20.50
2024-01-14T16:38:42.007Z,20.53
2024-01-14T16:41:11.713Z,21.03
2024-01-14T16:43:39.425Z,19.07
2024-01-14T16:46:07.607Z,20.17
2024-01-14T16:48:35.883Z,19.17
2024-01-14T16:51:09.777Z,20.60
2024-01-14T16:53:41.001Z,20.37
2024-01-14T16:56:15.081Z,20.40
2024-01-14T16:58:44.639Z,19.40
2024-01-14T17:01:17.133Z,19.20
2024-01-14T17:03:47.943Z,20.60
2024-01-14T17:06:17.812Z,19.87
2024-01-14T17:08:46.952Z,20.00
2024-01-14T17:11:16.771Z,18.77
2024-01-14T17:13:46.604Z,20.37
2024-01-14T17:16:23.110Z,19.63
2024-01-14T17:18:52.285Z,19.90
2024-01-14T17:21:20.248Z,19.87
2024-01-14T17:23:48.344Z,19.77
2024-01-14T17:26:18.996Z,19.47
2024-01-14T17:28:46.719Z,19.77
2024-01-14T17:31:17.067Z,19.83
2024-01-14T17:33:48.214Z,19.60
2024-01-14T17:36:18.048Z,19.30
2024-01-14T17:38:49.118Z,19.83
2024-01-14T17:41:19.157Z,18.00
2024-01-14T17:43:47.365Z,20.27
2024-01-14T17:46:19.557Z,19.17
2024-01-14T17:48:49.852Z,19.13
2024-01-14T17:51:19.670Z,19.60
2024-01-14T17:53:47.653Z,20.30
2024-01-14T17:56:16.524Z,19.63
2024-01-14T17:58:46.658Z,20.07
2024-01-14T18:01:14.481Z,20.40
2024-01-14T18:03:42.698Z,18.40
2024-01-14T18:06:12.337Z,19.23
2024-01-14T18:08:40.316Z,20.80
2024-01-14T18:11:07.990Z,19.90
2024-01-14T18:13:35.674Z,19.77
2024-01-14T18:16:06.329Z,19.17
2024-01-14T18:18:34.191Z,19.80
2024-01-14T18:21:02.670Z,20.67
2024-01-14T18:23:30.379Z,20.10
2024-01-14T18:25:57.847Z,20.40
2024-01-14T18:28:25.325Z,20.10
2024-01-14T18:30:52.895Z,19.73
2024-01-14T18:33:21.900Z,20.67
2024-01-14T18:35:49.391Z,19.73
2024-01-14T18:38:17.453Z,20.53
2024-01-14T18:40:45.016Z,21.93
2024-01-14T18:43:12.720Z,21.30
2024-01-14T18:45:40.884Z,20.53
2024-01-14T18:48:09.467Z,20.53
2024-01-14T18:50:38.695Z,21.20
2024-01-14T18:53:07.910Z,20.73
2024-01-14T18:55:38.097Z,20.10
2024-01-14T18:58:05.765Z,21.43
2024-01-14T19:00:33.397Z,20.87
2024-01-14T19:03:01.605Z,21.93
2024-01-14T19:05:29.258Z,21.47
2024-01-14T19:07:58.191Z,22.10
2024-01-14T19:10:26.730Z,20.77
2024-01-14T19:12:56.941Z,20.70
2024-01-14T19:15:24.929Z,21.60
2024-01-14T19:17:52.648Z,22.10
2024-01-14T19:20:20.583Z,22.07
2024-01-14T19:22:48.117Z,22.27
2024-01-14T19:25:16.966Z,21.50
2024-01-14T19:27:44.629Z,21.57
2024-01-14T19:30:13.296Z,22.03
2024-01-14T19:32:40.974Z,23.00
2024-01-14T19:35:10.130Z,20.73
2024-01-14T19:37:37.627Z,21.30
2024-01-14T19:40:05.823Z,21.13
2024-01-14T19:42:34.703Z,22.57
2024-01-14T19:45:02.764Z,21.93
2024-01-14T19:47:30.958Z,22.17
2024-01-14T19:49:58.888Z,22.50
2024-01-14T19:52:26.476Z,22.27
2024-01-14T19:54:54.125Z,21.90
2024-01-14T19:57:21.728Z,21.93
2024-01-14T19:59:50.552Z,22.40
2024-01-14T20:02:18.059Z,21.73
2024-01-14T20:04:45.568Z,23.63
2024-01-14T20:07:13.299Z,22.87
2024-01-14T20:09:40.854Z,23.43
2024-01-14T20:12:08.546Z,22.00
2024-01-14T20:14:36.863Z,22.57
2024-01-14T20:17:05.947Z,22.87
2024-01-14T20:19:33.799Z,22.00
2024-01-14T20:22:01.441Z,22.90
2024-01-14T20:24:31.929Z,22.50
2024-01-14T20:26:59.479Z,23.20
2024-01-14T20:29:26.958Z,23.23
2024-01-14T20:31:54.540Z,23.03
2024-01-14T20:34:24.634Z,21.73
2024-01-14T20:36:53.402Z,22.57
2024-01-14T20:39:21.255Z,22.20
2024-01-14T20:41:48.773Z,22.73
2024-01-14T20:44:16.527Z,21.20
2024-01-14T20:46:44.233Z,21.90
2024-01-14T20:49:12.071Z,21.90
2024-01-14T20:51:41.610Z,21.73
2024-01-14T20:54:09.268Z,22.17
2024-01-14T20:56:36.801Z,23.17
2024-01-14T20:59:04.325Z,23.37
2024-01-14T21:01:35.027Z,23.73
2024-01-14T21:04:03.702Z,23.13
2024-01-14T21:06:31.791Z,23.47
2024-01-14T21:09:01.027Z,23.27
2024-01-14T21:11:28.567Z,20.97
2024-01-14T21:13:56.115Z,22.47
2024-01-14T21:16:23.704Z,22.87
2024-01-14T21:18:51.329Z,23.30
2024-01-14T21:21:25.087Z,22.93
2024-01-14T21:23:52.723Z,22.17
2024-01-14T21:26:21.577Z,22.63
2024-01-14T21:28:49.124Z,23.33
2024-01-14T21:31:16.735Z,23.17
2024-01-14T21:33:44.492Z,22.43
2024-01-14T21:36:12.111Z,22.43
2024-01-14T21:38:39.626Z,23.07
2024-01-14T21:41:07.213Z,22.43
2024-01-14T21:43:37.770Z,21.87
2024-01-14T21:46:06.872Z,21.80
2024-01-14T21:48:34.816Z,23.23
2024-01-14T21:51:03.230Z,20.57
2024-01-14T21:53:31.175Z,20.17
2024-01-14T21:55:58.816Z,20.00
2024-01-14T21:58:28.125Z,20.30
2024-01-14T22:00:57.163Z,19.83
2024-01-14T22:03:25.026Z,18.17
2024-01-14T22:05:52.882Z,17.60
2024-01-14T22:08:20.447Z,16.67
2024-01-14T22:10:47.970Z,16.37
2024-01-14T22:13:15.661Z,16.47
2024-01-14T22:15:43.385Z,15.53
2024-01-14T22:18:12.434Z,15.87
2024-01-14T22:20:41.225Z,16.47
2024-01-14T22:23:08.792Z,15.50
2024-01-14T22:25:36.297Z,15.83
2024-01-14T22:28:04.111Z,16.47
2024-01-14T22:30:31.882Z,16.80
2024-01-14T22:32:59.557Z,18.20
2024-01-14T22:35:30.512Z,15.97
2024-01-14T22:37:58.050Z,16.40
2024-01-14T22:40:25.549Z,14.13
2024-01-14T22:42:53.088Z,14.63
2024-01-14T22:45:20.697Z,13.90
2024-01-14T22:47:48.377Z,12.90
2024-01-14T22:50:15.952Z,12.57
2024-01-14T22:52:44.779Z,13.10
2024-01-14T22:55:12.334Z,13.13
2024-01-14T22:57:39.868Z,12.60
2024-01-14T23:00:13.963Z,12.93
2024-01-14T23:02:41.426Z,13.30
2024-01-14T23:05:09.872Z,12.83
2024-01-14T23:07:37.368Z,12.60
2024-01-14T23:10:07.646Z,12.57
2024-01-14T23:12:35.144Z,12.60
2024-01-14T23:15:02.798Z,12.30
2024-01-14T23:17:30.588Z,12.53
2024-01-14T23:19:58.276Z,12.57
2024-01-14T23:22:25.821Z,12.20
2024-01-14T23:24:53.407Z,11.83
2024-01-14T23:27:22.428Z,11.87
2024-01-14T23:29:50.157Z,12.13
2024-01-14T23:32:17.632Z,10.93
2024-01-14T23:34:45.588Z,10.50
2024-01-14T23:37:13.404Z,11.10
2024-01-14T23:39:41.166Z,9.63
2024-01-14T23:42:08.749Z,9.67
2024-01-14T23:44:40.059Z,9.30
2024-01-14T23:47:07.640Z,8.80
2024-01-14T23:49:35.256Z,9.77
2024-01-14T23:52:02.825Z,7.97
2024-01-14T23:54:30.313Z,8.03
2024-01-14T23:56:57.810Z,8.20
2024-01-14T23:59:25.574Z,7.47
